Trinway, Ohio
Current Conditions -  °F | °C
As of 1:53 AM on Monday 24 Nov 2014 (Local Time) from KZZV Reporting Station
Light Rain Light Rain  
Wind Chill: 56°   Ceiling: 1300
Heat Index: 56°   Visibility: 7mi
Dew Point: 53°   Wind: 15mph
Humidity: 90%   Direction: 170°S
Pressure: 29.34"   Gusts: 25mph
Location:  40.14°N, 82.01°W
Report Text: KZZV 240653Z AUTO 17013G22KT 7SM -RA BKN013 BKN019 OVC027 13/12 A2934 RMK AO2 RAB00 SLP931 P0002 T01330117
Loading
Personal Weather Stations






























Interactive Weather Map New forecast layout! Learn more

10-Day Weather Forecast

Advertisements
Track Severe Weather on mobile